Time;durP1;ratioP1;P1;durP2;ratioP2;P2;SDS_P1;SDS_P2;PMS_P1;PMS_P2;Temp;Humidity;BMP_temperature;BMP_pressure;BME280_temperature;BME280_humidity;BME280_pressure;Samples;Min_cycle;Max_cycle;Signal;HPM_P1;HPM_P2
2022/08/31 00:07:17;;;;;;;1.23;0.95;;;23.00;55.40;;;;;;10519197;28;20458;-51
2022/08/31 00:12:19;;;;;;;1.48;0.90;;;23.00;55.40;;;;;;10534211;28;20031;-48
2022/08/31 00:17:20;;;;;;;1.35;0.90;;;23.00;55.50;;;;;;10533073;28;20225;-48
2022/08/31 00:22:20;;;;;;;1.23;0.90;;;23.00;55.40;;;;;;10534077;28;20312;-48
2022/08/31 00:27:21;;;;;;;1.42;0.60;;;23.00;55.40;;;;;;10529357;28;20036;-48
2022/08/31 00:32:22;;;;;;;2.22;0.98;;;23.00;55.50;;;;;;10492688;28;20182;-50
2022/08/31 00:37:23;;;;;;;1.80;1.02;;;23.00;56.10;;;;;;10515039;28;20494;-49
2022/08/31 00:42:24;;;;;;;1.20;0.68;;;23.00;55.40;;;;;;10532898;28;20050;-49
2022/08/31 00:47:24;;;;;;;1.35;1.08;;;23.00;55.40;;;;;;10532750;28;20032;-50
2022/08/31 00:52:36;;;;;;;1.73;0.80;;;23.00;55.40;;;;;;10532679;28;20041;-52
2022/08/31 00:57:41;;;;;;;1.75;1.10;;;22.90;56.00;;;;;;10515302;28;20036;-52
2022/08/31 01:02:42;;;;;;;1.38;0.98;;;22.90;55.40;;;;;;10514449;28;20040;-51
2022/08/31 01:07:46;;;;;;;2.20;0.90;;;22.90;55.40;;;;;;10532094;28;20020;-49
2022/08/31 01:12:52;;;;;;;1.67;0.95;;;22.90;55.40;;;;;;10514476;28;20060;-50
2022/08/31 01:17:56;;;;;;;1.38;1.00;;;22.90;55.30;;;;;;10514490;28;20055;-50
2022/08/31 01:23:25;;;;;;;2.10;0.95;;;22.90;55.30;;;;;;10513581;28;20177;-51
2022/08/31 01:28:26;;;;;;;1.42;1.00;;;22.90;55.30;;;;;;10495145;28;20484;-52
2022/08/31 01:33:28;;;;;;;2.45;0.95;;;22.90;55.40;;;;;;10498761;28;20106;-51
2022/08/31 01:38:30;;;;;;;1.23;0.82;;;22.90;55.40;;;;;;10530711;28;20516;-51
2022/08/31 01:43:33;;;;;;;1.77;1.17;;;22.90;55.40;;;;;;10512697;28;20056;-52
2022/08/31 01:48:35;;;;;;;1.33;1.10;;;22.90;56.00;;;;;;10530821;28;20089;-48
2022/08/31 01:53:36;;;;;;;2.20;1.02;;;22.90;55.40;;;;;;10530412;28;20032;-52
2022/08/31 01:58:36;;;;;;;1.27;0.70;;;22.90;55.40;;;;;;10530051;28;20031;-50
2022/08/31 02:03:37;;;;;;;1.80;0.90;;;22.90;55.30;;;;;;10530139;28;20028;-51
2022/08/31 02:08:38;;;;;;;1.10;0.85;;;22.90;55.30;;;;;;10530826;28;20058;-52
2022/08/31 02:13:39;;;;;;;1.30;0.95;;;22.80;55.20;;;;;;10529958;28;20055;-52
2022/08/31 02:18:40;;;;;;;2.97;1.98;;;22.90;55.30;;;;;;10529796;28;20024;-49
2022/08/31 02:23:41;;;;;;;2.08;0.90;;;22.80;55.30;;;;;;10529670;28;20526;-48
2022/08/31 02:28:42;;;;;;;1.50;1.00;;;22.80;55.20;;;;;;10514009;28;20089;-49
2022/08/31 02:33:43;;;;;;;1.00;0.75;;;22.80;55.30;;;;;;10499652;28;20024;-50
2022/08/31 02:38:44;;;;;;;1.55;1.10;;;22.80;55.20;;;;;;10532837;28;20050;-50
2022/08/31 02:43:44;;;;;;;1.73;0.90;;;22.80;55.20;;;;;;10538243;28;20429;-53
2022/08/31 02:48:45;;;;;;;1.50;0.90;;;22.80;55.20;;;;;;10519344;28;20582;-52
2022/08/31 02:53:46;;;;;;;1.20;0.77;;;22.80;55.20;;;;;;10537956;28;20050;-53
2022/08/31 02:58:53;;;;;;;1.30;0.80;;;22.80;55.20;;;;;;10537130;28;20445;-53
2022/08/31 03:03:54;;;;;;;0.98;0.80;;;22.80;55.10;;;;;;10537776;28;20111;-51
2022/08/31 03:08:55;;;;;;;1.13;0.80;;;22.80;55.10;;;;;;10518914;28;20444;-52
2022/08/31 03:13:56;;;;;;;2.10;0.90;;;22.80;55.10;;;;;;10536505;28;20028;-53
2022/08/31 03:18:57;;;;;;;1.30;0.82;;;22.80;55.10;;;;;;10536892;28;20177;-51
2022/08/31 03:23:57;;;;;;;2.10;1.05;;;22.80;55.10;;;;;;10536082;28;20028;-49
2022/08/31 03:28:58;;;;;;;1.67;1.08;;;22.80;55.00;;;;;;10518341;28;20020;-52
2022/08/31 03:33:59;;;;;;;1.52;0.80;;;22.80;55.00;;;;;;10507820;28;20084;-51
2022/08/31 03:38:59;;;;;;;1.27;0.80;;;22.80;55.00;;;;;;10517034;28;20051;-51
2022/08/31 03:44:00;;;;;;;1.23;0.73;;;22.80;55.00;;;;;;10536104;28;20073;-52
2022/08/31 03:49:02;;;;;;;2.05;1.00;;;22.80;55.00;;;;;;10535000;28;20020;-51
2022/08/31 03:54:03;;;;;;;1.17;0.77;;;22.80;54.90;;;;;;10535029;28;20035;-49
2022/08/31 03:59:05;;;;;;;1.75;1.10;;;22.70;54.80;;;;;;10535197;28;20046;-50
2022/08/31 04:04:06;;;;;;;1.65;1.00;;;22.70;54.80;;;;;;10535022;28;20028;-48
2022/08/31 04:09:07;;;;;;;1.75;0.82;;;22.70;54.80;;;;;;10516244;28;20031;-52
2022/08/31 04:14:09;;;;;;;1.23;0.70;;;22.70;54.80;;;;;;10534147;28;20106;-52
2022/08/31 04:19:14;;;;;;;0.70;0.60;;;22.70;54.80;;;;;;10515790;28;20024;-50
2022/08/31 04:24:15;;;;;;;1.30;0.90;;;22.70;54.70;;;;;;10533873;28;20025;-52
2022/08/31 04:29:16;;;;;;;1.00;0.80;;;22.70;54.70;;;;;;10495096;28;20040;-53
2022/08/31 04:34:16;;;;;;;1.02;0.70;;;22.70;54.70;;;;;;10506690;28;20166;-49
2022/08/31 04:39:17;;;;;;;1.13;0.80;;;22.70;54.70;;;;;;10528814;28;20071;-51
2022/08/31 04:44:18;;;;;;;1.95;0.80;;;22.70;54.60;;;;;;10512265;28;20024;-49
2022/08/31 04:49:19;;;;;;;1.23;0.70;;;22.70;54.50;;;;;;10534908;28;20111;-48
2022/08/31 04:54:19;;;;;;;1.20;0.65;;;22.70;54.60;;;;;;10534558;28;20054;-52
2022/08/31 04:59:24;;;;;;;1.10;0.70;;;22.70;54.50;;;;;;10533988;28;20038;-51
2022/08/31 05:04:27;;;;;;;1.95;0.70;;;22.60;54.40;;;;;;10534445;28;20107;-50
2022/08/31 05:09:28;;;;;;;1.10;0.70;;;22.60;54.30;;;;;;10516232;28;20028;-51
2022/08/31 05:14:29;;;;;;;1.70;0.95;;;22.70;54.30;;;;;;10533680;28;20032;-51
2022/08/31 05:19:30;;;;;;;1.48;1.00;;;22.70;54.20;;;;;;10515669;28;20608;-48
2022/08/31 05:24:34;;;;;;;0.98;0.65;;;22.60;54.20;;;;;;10533276;28;20119;-49
2022/08/31 05:29:35;;;;;;;0.93;0.65;;;22.60;54.10;;;;;;10510533;28;20025;-50
2022/08/31 05:34:36;;;;;;;0.77;0.50;;;22.60;54.10;;;;;;10476003;28;20671;-50
2022/08/31 05:39:36;;;;;;;1.27;0.80;;;22.60;54.10;;;;;;10514660;28;20649;-52
2022/08/31 05:44:37;;;;;;;1.67;0.90;;;22.60;54.00;;;;;;10532743;28;20036;-52
2022/08/31 05:49:41;;;;;;;1.50;0.70;;;22.60;54.10;;;;;;10497699;28;20576;-53
2022/08/31 05:54:42;;;;;;;1.10;0.63;;;22.60;54.00;;;;;;10514586;28;20035;-50
2022/08/31 05:59:43;;;;;;;0.90;0.70;;;22.60;54.00;;;;;;10532225;28;20032;-51
2022/08/31 06:04:44;;;;;;;1.25;0.85;;;22.60;54.00;;;;;;10513898;28;20032;-49
2022/08/31 06:09:44;;;;;;;0.90;0.63;;;22.60;53.90;;;;;;10532289;28;20020;-51
2022/08/31 06:14:45;;;;;;;1.45;0.73;;;22.60;53.90;;;;;;10528748;28;20022;-50
2022/08/31 06:19:46;;;;;;;1.50;0.80;;;22.60;53.90;;;;;;10531305;28;20124;-51
2022/08/31 06:24:47;;;;;;;1.52;0.80;;;22.60;53.90;;;;;;10531646;28;20072;-49
2022/08/31 06:29:48;;;;;;;0.68;0.52;;;22.60;54.00;;;;;;10506796;28;20055;-50
2022/08/31 06:34:48;;;;;;;1.05;0.60;;;22.60;53.90;;;;;;10510330;28;20510;-50
2022/08/31 06:39:52;;;;;;;2.50;1.70;;;22.50;53.90;;;;;;10512729;28;20135;-51
2022/08/31 06:44:53;;;;;;;0.95;0.75;;;22.50;53.80;;;;;;10513266;28;20394;-50
2022/08/31 06:49:56;;;;;;;1.25;0.60;;;22.50;53.80;;;;;;10513257;28;20028;-51
2022/08/31 06:54:56;;;;;;;1.20;0.57;;;22.60;53.80;;;;;;10530993;28;20111;-50
2022/08/31 06:59:57;;;;;;;0.95;0.60;;;22.50;53.90;;;;;;10531281;28;20043;-47
2022/08/31 07:04:58;;;;;;;0.70;0.50;;;22.50;53.80;;;;;;10530712;28;20144;-50
2022/08/31 07:09:59;;;;;;;0.65;0.50;;;22.50;53.80;;;;;;10530919;28;20032;-50
2022/08/31 07:14:59;;;;;;;1.30;0.70;;;22.50;53.80;;;;;;10530456;28;20026;-51
2022/08/31 07:20:00;;;;;;;0.77;0.50;;;22.50;53.80;;;;;;10512685;28;20090;-54
2022/08/31 07:25:01;;;;;;;1.73;0.65;;;22.50;53.80;;;;;;10534191;28;20111;-49
2022/08/31 07:30:02;;;;;;;0.95;0.50;;;22.50;53.80;;;;;;10492735;28;20282;-48
2022/08/31 07:35:05;;;;;;;1.13;0.52;;;22.50;53.90;;;;;;10501295;28;20024;-51
2022/08/31 07:45:25;;;;;;;1.30;0.60;;;22.50;53.90;;;;;;10537311;28;20123;-51
2022/08/31 07:50:29;;;;;;;1.65;0.88;;;22.50;53.90;;;;;;10537118;28;20419;-51
2022/08/31 07:55:33;;;;;;;0.98;0.60;;;22.50;54.00;;;;;;10537277;28;20024;-48
2022/08/31 08:00:34;;;;;;;1.08;0.60;;;22.50;53.70;;;;;;10536744;28;20028;-50
2022/08/31 08:05:40;;;;;;;2.28;0.68;;;22.50;53.80;;;;;;10536405;28;20025;-52
2022/08/31 08:10:43;;;;;;;1.48;0.60;;;22.60;53.60;;;;;;10536834;28;20547;-50
2022/08/31 08:15:44;;;;;;;1.13;0.43;;;22.60;53.40;;;;;;10536171;28;20039;-53
2022/08/31 08:20:45;;;;;;;0.98;0.50;;;22.60;53.50;;;;;;10535764;28;20081;-52
2022/08/31 08:25:46;;;;;;;1.48;0.65;;;22.60;53.50;;;;;;10535868;28;20054;-52
2022/08/31 08:30:53;;;;;;;1.08;0.73;;;22.60;53.60;;;;;;10484115;28;20036;-49
2022/08/31 08:35:56;;;;;;;1.25;0.60;;;22.60;53.60;;;;;;10522496;28;20024;-49
2022/08/31 08:41:05;;;;;;;1.20;0.47;;;22.60;53.60;;;;;;10535218;28;20059;-51
2022/08/31 08:46:08;;;;;;;1.33;0.70;;;22.60;53.60;;;;;;10534915;28;20093;-52
2022/08/31 08:51:16;;;;;;;1.00;0.57;;;22.70;53.60;;;;;;10535031;28;20073;-52
2022/08/31 08:56:19;;;;;;;1.17;0.73;;;22.70;53.70;;;;;;10517161;28;20035;-53
2022/08/31 09:01:26;;;;;;;2.05;0.77;;;22.70;53.70;;;;;;10534717;28;20687;-52
2022/08/31 09:06:53;;;;;;;0.95;0.60;;;22.70;53.70;;;;;;10516199;28;20032;-51
2022/08/31 09:12:25;;;;;;;2.10;0.70;;;22.70;53.60;;;;;;10518549;28;20088;-50
2022/08/31 09:18:09;;;;;;;1.90;0.73;;;22.70;54.40;;;;;;10527776;28;20131;-49
2022/08/31 09:23:09;;;;;;;1.17;0.90;;;22.70;53.80;;;;;;10533350;28;20170;-49
2022/08/31 09:28:13;;;;;;;2.85;0.60;;;22.70;53.80;;;;;;10522399;28;20103;-49
2022/08/31 09:33:34;;;;;;;0.60;0.40;;;22.70;54.00;;;;;;10499160;28;20548;-49
2022/08/31 09:38:39;;;;;;;1.10;0.68;;;22.80;54.10;;;;;;10514832;28;20048;-50
2022/08/31 09:43:39;;;;;;;0.68;0.55;;;22.80;54.10;;;;;;10514438;28;20521;-50
2022/08/31 09:49:01;;;;;;;1.08;0.50;;;22.80;54.20;;;;;;10514207;28;20024;-52
2022/08/31 09:59:50;;;;;;;1.00;0.50;;;22.80;54.20;;;;;;10517992;28;20040;-51
2022/08/31 10:05:03;;;;;;;1.00;0.60;;;22.80;54.20;;;;;;10532243;28;20028;-51
2022/08/31 10:10:20;;;;;;;1.33;0.63;;;22.90;54.10;;;;;;10514360;28;20030;-51
2022/08/31 10:15:34;;;;;;;1.10;0.60;;;22.90;54.10;;;;;;10514603;28;20039;-51
2022/08/31 10:20:37;;;;;;;1.08;0.52;;;22.90;54.30;;;;;;10531659;28;20023;-50
2022/08/31 10:25:51;;;;;;;0.80;0.45;;;22.90;54.00;;;;;;10531167;28;20025;-49
2022/08/31 10:31:06;;;;;;;1.90;0.60;;;22.90;54.20;;;;;;10481135;28;20115;-52
2022/08/31 10:36:06;;;;;;;0.75;0.60;;;22.90;54.20;;;;;;10504150;28;20034;-48
2022/08/31 10:41:17;;;;;;;0.70;0.50;;;22.90;54.40;;;;;;10512838;28;20056;-51
2022/08/31 10:46:19;;;;;;;1.80;0.63;;;22.90;54.30;;;;;;10531064;28;20515;-51
2022/08/31 10:51:34;;;;;;;1.88;0.77;;;22.90;54.70;;;;;;10513468;28;20028;-51
2022/08/31 10:57:05;;;;;;;1.17;0.70;;;22.90;54.40;;;;;;10513335;28;20371;-51
2022/08/31 11:02:55;;;;;;;1.63;0.73;;;22.90;54.60;;;;;;10472914;28;20044;-51
2022/08/31 11:08:47;;;;;;;0.90;0.50;;;22.90;54.40;;;;;;10521232;28;20810;-52
2022/08/31 11:14:16;;;;;;;1.10;0.60;;;22.90;54.70;;;;;;10538942;28;20028;-49
2022/08/31 11:19:49;;;;;;;0.98;0.68;;;22.90;54.80;;;;;;10538477;28;20032;-51
2022/08/31 11:25:47;;;;;;;2.17;0.77;;;22.90;54.70;;;;;;10523233;28;20383;-52
2022/08/31 11:30:48;;;;;;;0.80;0.68;;;23.00;54.80;;;;;;10408067;28;20029;-50
2022/08/31 11:35:48;;;;;;;1.85;0.60;;;23.00;54.80;;;;;;10499866;28;20521;-51
2022/08/31 11:40:59;;;;;;;1.45;0.60;;;23.00;54.60;;;;;;10537287;28;20050;-50
2022/08/31 11:46:25;;;;;;;0.85;0.70;;;23.00;54.80;;;;;;10519321;28;20107;-50
2022/08/31 11:51:40;;;;;;;0.45;0.43;;;23.00;55.00;;;;;;10537430;28;20103;-53
2022/08/31 11:56:46;;;;;;;0.65;0.45;;;23.00;54.80;;;;;;10537005;28;20032;-52
2022/08/31 12:01:46;;;;;;;0.82;0.60;;;23.00;54.80;;;;;;10537336;28;20032;-53
2022/08/31 12:06:59;;;;;;;0.70;0.52;;;23.10;54.80;;;;;;10536320;28;20035;-51
2022/08/31 12:12:08;;;;;;;2.35;0.77;;;23.10;54.90;;;;;;10518909;28;20024;-53
2022/08/31 12:17:37;;;;;;;;;;;23.10;54.90;;;;;;10536736;28;20032;-52
2022/08/31 12:29:01;;;;;;;0.98;0.70;;;23.10;55.00;;;;;;10509230;28;20040;-51
2022/08/31 12:34:16;;;;;;;0.63;0.55;;;23.20;54.90;;;;;;10471568;28;20043;-52
2022/08/31 12:39:27;;;;;;;1.10;0.60;;;23.20;54.90;;;;;;10517735;28;20619;-52
2022/08/31 12:44:32;;;;;;;1.40;0.70;;;23.10;54.90;;;;;;10535100;28;20032;-51
2022/08/31 12:49:55;;;;;;;1.40;0.40;;;23.20;54.80;;;;;;10517626;28;20036;-53
2022/08/31 12:55:11;;;;;;;1.20;0.60;;;23.10;55.00;;;;;;10534636;28;20157;-51
2022/08/31 13:00:27;;;;;;;1.35;0.82;;;23.10;55.20;;;;;;10534926;28;20514;-51
2022/08/31 13:05:32;;;;;;;0.80;0.60;;;23.10;55.10;;;;;;10516401;28;20119;-52
2022/08/31 13:10:37;;;;;;;1.85;0.60;;;23.20;55.20;;;;;;10534580;28;20048;-52
2022/08/31 13:15:42;;;;;;;0.90;0.50;;;23.10;55.20;;;;;;10533412;28;20028;-54
2022/08/31 13:20:45;;;;;;;2.17;0.60;;;23.20;54.90;;;;;;10533480;28;20093;-51
2022/08/31 13:26:19;;;;;;;1.08;0.68;;;23.20;55.20;;;;;;10498524;28;20081;-51
2022/08/31 13:31:29;;;;;;;1.20;0.65;;;23.10;55.10;;;;;;10479742;28;20240;-51
2022/08/31 13:36:46;;;;;;;1.38;0.80;;;23.10;54.90;;;;;;10525967;28;20020;-52
2022/08/31 13:42:19;;;;;;;1.00;0.73;;;23.10;54.90;;;;;;10515363;28;20052;-52
2022/08/31 13:47:24;;;;;;;1.00;0.50;;;23.20;55.20;;;;;;10518121;28;20527;-51
2022/08/31 13:52:29;;;;;;;0.50;0.50;;;23.20;55.20;;;;;;10514370;28;20046;-53
2022/08/31 13:57:30;;;;;;;1.25;0.60;;;23.10;55.10;;;;;;10514658;28;20032;-53
2022/08/31 14:02:34;;;;;;;1.10;0.63;;;23.20;55.10;;;;;;10513917;28;20016;-53
2022/08/31 14:07:37;;;;;;;1.75;0.60;;;23.10;54.90;;;;;;10514479;28;20118;-53
2022/08/31 14:12:52;;;;;;;2.47;1.27;;;23.10;55.00;;;;;;10532145;28;20062;-53
2022/08/31 14:18:00;;;;;;;1.42;0.65;;;23.10;54.90;;;;;;10514436;28;20032;-52
2022/08/31 14:23:26;;;;;;;1.70;0.70;;;23.10;55.10;;;;;;10514142;28;20511;-52
2022/08/31 14:29:02;;;;;;;1.38;1.05;;;23.10;54.60;;;;;;10518267;28;20112;-52
2022/08/31 14:34:45;;;;;;;0.93;0.73;;;23.10;55.00;;;;;;10501600;28;20128;-51
2022/08/31 14:39:56;;;;;;;;;;;23.10;55.00;;;;;;10518619;28;20050;-53
2022/08/31 14:45:02;;;;;;;1.52;0.82;;;23.00;55.00;;;;;;10522985;28;19919;-53
2022/08/31 14:50:04;;;;;;;0.98;0.65;;;23.00;55.00;;;;;;10539937;28;20384;-52
2022/08/31 14:55:07;;;;;;;1.35;0.77;;;23.10;55.00;;;;;;10539224;28;20035;-51
2022/08/31 15:00:10;;;;;;;1.00;0.75;;;23.00;54.90;;;;;;10521112;28;20443;-52
2022/08/31 15:05:11;;;;;;;1.48;0.85;;;23.00;54.80;;;;;;10539306;28;20598;-53
2022/08/31 15:10:12;;;;;;;1.00;0.63;;;23.00;54.70;;;;;;10538935;28;20020;-50
2022/08/31 15:15:19;;;;;;;1.48;0.90;;;23.00;54.90;;;;;;10539188;28;20239;-51
2022/08/31 15:20:21;;;;;;;1.23;0.82;;;23.00;54.80;;;;;;10520298;28;20027;-52
2022/08/31 15:25:25;;;;;;;1.02;0.90;;;23.00;54.70;;;;;;10520578;28;20391;-51
2022/08/31 15:30:26;;;;;;;0.80;0.60;;;23.00;54.80;;;;;;10509364;28;20420;-50
2022/08/31 15:35:29;;;;;;;1.02;0.70;;;23.00;54.80;;;;;;10504676;28;20044;-51
2022/08/31 15:40:33;;;;;;;0.90;0.70;;;23.00;54.80;;;;;;10502906;28;20044;-52
2022/08/31 15:45:35;;;;;;;1.77;1.45;;;23.00;54.90;;;;;;10519359;28;20034;-52
2022/08/31 15:50:36;;;;;;;1.23;1.00;;;23.00;54.80;;;;;;10537178;28;20035;-50
2022/08/31 15:55:39;;;;;;;0.98;0.73;;;23.00;54.40;;;;;;10537367;28;20106;-50
2022/08/31 16:00:40;;;;;;;1.80;1.00;;;23.00;54.60;;;;;;10519078;28;20031;-53
2022/08/31 16:05:42;;;;;;;1.45;0.80;;;23.00;54.90;;;;;;10518655;28;20051;-52
2022/08/31 16:10:45;;;;;;;1.45;0.77;;;23.00;55.00;;;;;;10536961;28;20032;-50
2022/08/31 16:15:51;;;;;;;1.13;0.77;;;23.00;54.70;;;;;;10536423;28;20032;-52
2022/08/31 16:20:52;;;;;;;1.88;1.08;;;23.00;54.90;;;;;;10536968;28;20371;-52
2022/08/31 16:25:52;;;;;;;1.00;0.90;;;23.00;54.70;;;;;;10535878;28;20028;-53
2022/08/31 16:30:53;;;;;;;1.60;1.10;;;23.00;54.80;;;;;;10502402;28;20020;-53
2022/08/31 16:35:54;;;;;;;0.80;0.80;;;23.00;54.80;;;;;;10523784;28;20161;-52
2022/08/31 16:41:03;;;;;;;2.47;0.70;;;23.00;54.60;;;;;;10535253;28;20040;-52
2022/08/31 16:46:06;;;;;;;1.00;0.60;;;23.00;54.80;;;;;;10517013;28;20048;-51
2022/08/31 16:51:13;;;;;;;1.15;0.90;;;23.00;54.90;;;;;;10534836;28;20115;-53
2022/08/31 16:56:15;;;;;;;0.88;0.80;;;23.00;54.70;;;;;;10517000;28;20032;-49
2022/08/31 17:01:21;;;;;;;0.70;0.70;;;23.00;54.80;;;;;;10516608;28;20032;-52
2022/08/31 17:06:29;;;;;;;1.70;0.75;;;23.00;54.90;;;;;;10516407;28;20088;-52
2022/08/31 17:11:49;;;;;;;1.38;1.00;;;23.00;54.60;;;;;;10533966;28;20032;-50
2022/08/31 17:16:49;;;;;;;1.15;0.80;;;23.00;54.80;;;;;;10533781;28;20395;-48
2022/08/31 17:21:51;;;;;;;1.40;1.08;;;23.00;54.90;;;;;;10533843;28;20106;-52
2022/08/31 17:26:58;;;;;;;0.77;0.52;;;23.00;54.80;;;;;;10533575;28;20016;-49
2022/08/31 17:32:03;;;;;;;1.73;0.77;;;23.00;54.90;;;;;;10433211;28;20520;-49
2022/08/31 17:37:11;;;;;;;1.25;0.80;;;23.00;54.90;;;;;;10528686;28;20115;-51
2022/08/31 17:42:13;;;;;;;1.33;0.70;;;23.00;55.00;;;;;;10532747;28;20055;-51
2022/08/31 17:47:15;;;;;;;1.13;0.80;;;23.00;55.00;;;;;;10514710;28;20725;-51
2022/08/31 17:52:19;;;;;;;0.77;0.70;;;23.00;55.00;;;;;;10532321;28;20040;-51
2022/08/31 17:57:25;;;;;;;0.95;0.57;;;23.00;55.00;;;;;;10515113;28;20062;-48
2022/08/31 18:02:33;;;;;;;0.70;0.68;;;23.00;54.90;;;;;;10497538;28;20249;-50
2022/08/31 18:07:33;;;;;;;0.80;0.73;;;23.00;54.90;;;;;;10532123;28;20051;-49
2022/08/31 18:12:39;;;;;;;1.13;0.70;;;23.00;54.80;;;;;;10532225;28;20051;-49
2022/08/31 18:17:41;;;;;;;0.90;0.75;;;23.00;54.80;;;;;;10532444;28;20028;-50
2022/08/31 18:22:42;;;;;;;1.55;1.05;;;23.00;54.80;;;;;;10531844;28;20028;-51
2022/08/31 18:27:44;;;;;;;1.38;0.70;;;23.10;54.80;;;;;;10524765;28;20021;-51
2022/08/31 18:32:44;;;;;;;1.23;0.90;;;23.00;54.80;;;;;;10493282;28;20027;-52
2022/08/31 18:37:45;;;;;;;0.98;0.65;;;23.00;54.80;;;;;;10531218;28;20039;-52
2022/08/31 18:48:05;;;;;;;0.70;0.65;;;23.00;54.70;;;;;;10516344;28;20047;-52
2022/08/31 18:53:06;;;;;;;1.83;1.08;;;23.00;54.70;;;;;;10531315;28;20039;-49
2022/08/31 18:58:07;;;;;;;1.63;0.95;;;23.00;54.80;;;;;;10530644;28;20035;-49
2022/08/31 19:03:08;;;;;;;1.85;0.68;;;23.00;54.70;;;;;;10528638;28;20032;-51
2022/08/31 19:08:08;;;;;;;0.68;0.60;;;23.00;54.80;;;;;;10529258;28;20043;-50
2022/08/31 19:13:09;;;;;;;1.02;0.73;;;23.10;54.80;;;;;;10528584;28;20032;-49
2022/08/31 19:18:10;;;;;;;0.70;0.70;;;23.10;54.60;;;;;;10510158;28;20028;-50
2022/08/31 19:23:10;;;;;;;1.00;0.70;;;23.10;54.60;;;;;;10517338;28;20463;-50
2022/08/31 19:28:11;;;;;;;1.08;0.85;;;23.10;54.70;;;;;;10506735;28;20037;-50
2022/08/31 19:33:12;;;;;;;0.93;0.60;;;23.10;54.60;;;;;;10501721;28;20053;-51
2022/08/31 19:38:13;;;;;;;0.90;0.60;;;23.10;54.60;;;;;;10535676;28;20479;-48
2022/08/31 19:43:13;;;;;;;0.98;0.60;;;23.00;54.60;;;;;;10517546;28;20032;-50
2022/08/31 19:48:15;;;;;;;0.85;0.60;;;23.00;54.60;;;;;;10535897;28;20028;-52
2022/08/31 19:53:17;;;;;;;0.68;0.60;;;23.10;54.50;;;;;;10516987;28;20530;-51
2022/08/31 19:58:24;;;;;;;0.63;0.50;;;23.10;54.60;;;;;;10535554;28;20089;-52
2022/08/31 20:03:26;;;;;;;1.17;0.70;;;23.00;54.50;;;;;;10535389;28;20031;-53
2022/08/31 20:08:26;;;;;;;1.13;0.70;;;23.00;54.50;;;;;;10534692;28;20055;-53
2022/08/31 20:13:28;;;;;;;1.25;0.88;;;23.10;54.60;;;;;;10534549;28;20028;-52
2022/08/31 20:18:29;;;;;;;2.45;0.80;;;23.00;54.40;;;;;;10534310;28;20531;-52
2022/08/31 20:23:30;;;;;;;1.60;0.80;;;23.00;54.40;;;;;;10534855;28;20096;-52
2022/08/31 20:28:31;;;;;;;1.10;0.65;;;23.00;54.40;;;;;;10519992;28;20115;-51
2022/08/31 20:33:33;;;;;;;1.58;0.77;;;23.00;54.30;;;;;;10500447;28;20153;-52
2022/08/31 20:38:34;;;;;;;2.90;1.42;;;23.00;54.30;;;;;;10515941;28;20051;-50
2022/08/31 20:43:35;;;;;;;0.98;0.60;;;23.00;54.20;;;;;;10533496;28;20028;-49
2022/08/31 20:53:55;;;;;;;;;;;23.00;54.10;;;;;;10533460;28;20036;-50
2022/08/31 20:58:56;;;;;;;1.38;0.70;;;23.00;54.20;;;;;;10514570;28;19912;-50
2022/08/31 21:03:57;;;;;;;1.25;0.70;;;23.00;54.10;;;;;;10532472;28;20035;-50
2022/08/31 21:08:57;;;;;;;1.00;0.75;;;23.00;54.10;;;;;;10532298;28;20452;-49
2022/08/31 21:13:58;;;;;;;2.55;0.70;;;23.00;54.00;;;;;;10513847;28;20024;-51
2022/08/31 21:19:00;;;;;;;1.33;0.77;;;23.00;54.00;;;;;;10531952;28;20024;-50
2022/08/31 21:24:01;;;;;;;2.15;1.02;;;22.90;53.90;;;;;;10531646;28;20479;-51
2022/08/31 21:29:02;;;;;;;1.27;0.50;;;23.00;53.90;;;;;;10513954;28;20028;-49
2022/08/31 21:34:03;;;;;;;1.42;0.98;;;23.00;53.90;;;;;;10504406;28;20479;-49
2022/08/31 21:39:07;;;;;;;0.93;0.70;;;23.00;53.80;;;;;;10531608;28;20124;-52
2022/08/31 21:44:10;;;;;;;2.30;0.88;;;22.90;53.70;;;;;;10531074;28;20388;-52
2022/08/31 21:49:11;;;;;;;1.67;0.70;;;23.00;53.70;;;;;;10531186;28;20115;-50
2022/08/31 21:54:13;;;;;;;1.67;0.80;;;22.90;53.60;;;;;;10530914;28;20031;-52
2022/08/31 21:59:16;;;;;;;2.08;0.60;;;22.90;53.70;;;;;;10530915;28;20032;-52
2022/08/31 22:04:19;;;;;;;1.00;0.80;;;22.90;53.70;;;;;;10512529;28;20032;-53
2022/08/31 22:09:22;;;;;;;2.53;0.68;;;22.90;53.70;;;;;;10530712;28;20062;-49
2022/08/31 22:14:29;;;;;;;1.50;0.82;;;22.90;53.70;;;;;;10530424;28;20106;-49
2022/08/31 22:19:35;;;;;;;1.40;0.57;;;22.90;53.70;;;;;;10530335;28;20107;-50
2022/08/31 22:24:35;;;;;;;2.00;0.93;;;22.90;54.30;;;;;;10530320;28;20109;-52
2022/08/31 22:29:39;;;;;;;0.82;0.80;;;22.90;53.70;;;;;;10489103;28;20437;-52
2022/08/31 22:34:42;;;;;;;1.88;0.82;;;22.90;53.70;;;;;;10507339;28;20037;-49
2022/08/31 22:39:42;;;;;;;1.08;0.70;;;22.90;53.70;;;;;;10511313;28;20613;-50
2022/08/31 22:44:43;;;;;;;0.95;0.70;;;22.90;53.80;;;;;;10529620;28;20034;-50
2022/08/31 22:49:44;;;;;;;1.23;0.80;;;22.90;53.80;;;;;;10511207;28;20020;-51
2022/08/31 22:54:44;;;;;;;1.40;0.88;;;22.90;53.80;;;;;;10513282;28;20122;-51
2022/08/31 22:59:46;;;;;;;1.35;0.77;;;22.90;53.80;;;;;;10538481;28;20483;-51
2022/08/31 23:04:48;;;;;;;5.43;1.00;;;22.90;53.80;;;;;;10537315;28;20024;-52
2022/08/31 23:09:49;;;;;;;0.82;0.63;;;22.90;53.80;;;;;;10537890;28;20463;-52
2022/08/31 23:14:50;;;;;;;1.20;0.75;;;22.90;53.80;;;;;;10537243;28;20027;-53
2022/08/31 23:19:53;;;;;;;2.13;0.63;;;22.80;53.80;;;;;;10536785;28;20393;-52
2022/08/31 23:24:58;;;;;;;1.73;0.80;;;22.90;53.90;;;;;;10518792;28;20415;-49
2022/08/31 23:29:59;;;;;;;1.52;0.60;;;22.80;53.80;;;;;;10510670;28;20484;-49
2022/08/31 23:35:00;;;;;;;1.25;0.85;;;22.80;53.90;;;;;;10516610;28;20118;-52
2022/08/31 23:40:02;;;;;;;0.90;0.80;;;22.90;53.90;;;;;;10517675;28;20047;-51
2022/08/31 23:45:04;;;;;;;1.40;0.75;;;22.80;53.90;;;;;;10535811;28;20123;-50
2022/08/31 23:50:07;;;;;;;1.10;0.70;;;22.80;53.80;;;;;;10535590;28;20436;-51
2022/08/31 23:55:09;;;;;;;1.65;0.88;;;22.80;53.90;;;;;;10517425;28;20036;-50
